sensor_id;sensor_type;location;lat;lon;timestamp;temperature;humidity
9971;DHT22;5026;51.494;11.974;2022-10-16T00:01:22;15.70;99.90
9971;DHT22;5026;51.494;11.974;2022-10-16T00:03:50;15.70;99.90
9971;DHT22;5026;51.494;11.974;2022-10-16T00:06:18;15.80;99.90
9971;DHT22;5026;51.494;11.974;2022-10-16T00:08:47;15.90;99.90
9971;DHT22;5026;51.494;11.974;2022-10-16T00:11:17;16.00;99.90
9971;DHT22;5026;51.494;11.974;2022-10-16T00:13:45;16.10;99.90
9971;DHT22;5026;51.494;11.974;2022-10-16T00:16:12;16.00;99.90
9971;DHT22;5026;51.494;11.974;2022-10-16T00:18:40;16.00;99.90
9971;DHT22;5026;51.494;11.974;2022-10-16T00:21:08;16.10;99.90
9971;DHT22;5026;51.494;11.974;2022-10-16T00:23:35;16.10;99.90
9971;DHT22;5026;51.494;11.974;2022-10-16T00:26:05;16.10;99.90
9971;DHT22;5026;51.494;11.974;2022-10-16T00:28:33;16.10;99.90
9971;DHT22;5026;51.494;11.974;2022-10-16T00:31:03;16.10;99.90
9971;DHT22;5026;51.494;11.974;2022-10-16T00:33:30;16.00;99.90
9971;DHT22;5026;51.494;11.974;2022-10-16T00:35:58;16.10;99.90
9971;DHT22;5026;51.494;11.974;2022-10-16T00:38:25;16.20;99.90
9971;DHT22;5026;51.494;11.974;2022-10-16T00:43:36;16.00;99.90
9971;DHT22;5026;51.494;11.974;2022-10-16T00:46:08;15.90;99.90
9971;DHT22;5026;51.494;11.974;2022-10-16T00:48:36;15.80;99.90
9971;DHT22;5026;51.494;11.974;2022-10-16T00:51:04;15.80;99.90
9971;DHT22;5026;51.494;11.974;2022-10-16T00:53:32;15.70;99.90
9971;DHT22;5026;51.494;11.974;2022-10-16T00:55:59;15.70;99.90
9971;DHT22;5026;51.494;11.974;2022-10-16T01:00:54;15.50;99.90
9971;DHT22;5026;51.494;11.974;2022-10-16T01:03:24;15.40;99.90
9971;DHT22;5026;51.494;11.974;2022-10-16T01:05:59;15.40;99.90
9971;DHT22;5026;51.494;11.974;2022-10-16T01:08:35;15.30;99.90
9971;DHT22;5026;51.494;11.974;2022-10-16T01:11:09;15.20;99.90
9971;DHT22;5026;51.494;11.974;2022-10-16T01:13:42;15.10;99.90
9971;DHT22;5026;51.494;11.974;2022-10-16T01:16:17;15.00;99.90
9971;DHT22;5026;51.494;11.974;2022-10-16T01:18:49;15.00;99.90
9971;DHT22;5026;51.494;11.974;2022-10-16T01:21:22;14.90;99.90
9971;DHT22;5026;51.494;11.974;2022-10-16T01:24:01;15.00;99.90
9971;DHT22;5026;51.494;11.974;2022-10-16T01:26:42;14.90;99.90
9971;DHT22;5026;51.494;11.974;2022-10-16T01:29:16;14.90;99.90
9971;DHT22;5026;51.494;11.974;2022-10-16T01:31:48;14.80;99.90
9971;DHT22;5026;51.494;11.974;2022-10-16T01:34:21;14.80;99.90
9971;DHT22;5026;51.494;11.974;2022-10-16T01:36:53;14.70;99.90
9971;DHT22;5026;51.494;11.974;2022-10-16T01:39:26;14.60;99.90
9971;DHT22;5026;51.494;11.974;2022-10-16T01:41:58;14.60;99.90
9971;DHT22;5026;51.494;11.974;2022-10-16T01:44:30;14.60;99.90
9971;DHT22;5026;51.494;11.974;2022-10-16T01:46:58;14.50;99.90
9971;DHT22;5026;51.494;11.974;2022-10-16T01:49:30;14.40;99.90
9971;DHT22;5026;51.494;11.974;2022-10-16T01:51:59;11.90;99.90
9971;DHT22;5026;51.494;11.974;2022-10-16T01:54:30;14.50;99.90
9971;DHT22;5026;51.494;11.974;2022-10-16T01:56:58;14.60;99.90
9971;DHT22;5026;51.494;11.974;2022-10-16T01:59:30;14.50;99.90
9971;DHT22;5026;51.494;11.974;2022-10-16T02:02:00;14.50;99.90
9971;DHT22;5026;51.494;11.974;2022-10-16T02:04:30;14.50;99.90
9971;DHT22;5026;51.494;11.974;2022-10-16T02:09:25;14.50;99.90
9971;DHT22;5026;51.494;11.974;2022-10-16T02:11:54;14.60;99.90
9971;DHT22;5026;51.494;11.974;2022-10-16T02:14:21;14.50;99.90
9971;DHT22;5026;51.494;11.974;2022-10-16T02:16:51;14.50;99.90
9971;DHT22;5026;51.494;11.974;2022-10-16T02:19:19;14.50;99.90
9971;DHT22;5026;51.494;11.974;2022-10-16T02:21:50;14.50;99.90
9971;DHT22;5026;51.494;11.974;2022-10-16T02:24:24;14.50;99.90
9971;DHT22;5026;51.494;11.974;2022-10-16T02:27:03;14.50;99.90
9971;DHT22;5026;51.494;11.974;2022-10-16T02:29:39;14.50;99.90
9971;DHT22;5026;51.494;11.974;2022-10-16T02:32:12;14.50;99.90
9971;DHT22;5026;51.494;11.974;2022-10-16T02:34:42;14.50;99.90
9971;DHT22;5026;51.494;11.974;2022-10-16T02:37:10;14.50;99.90
9971;DHT22;5026;51.494;11.974;2022-10-16T02:39:37;14.50;99.90
9971;DHT22;5026;51.494;11.974;2022-10-16T02:42:09;14.50;99.90
9971;DHT22;5026;51.494;11.974;2022-10-16T02:47:03;14.40;99.90
9971;DHT22;5026;51.494;11.974;2022-10-16T02:49:32;13.00;99.90
9971;DHT22;5026;51.494;11.974;2022-10-16T02:51:58;14.30;99.90
9971;DHT22;5026;51.494;11.974;2022-10-16T02:54:25;14.30;99.90
9971;DHT22;5026;51.494;11.974;2022-10-16T02:56:52;14.10;99.90
9971;DHT22;5026;51.494;11.974;2022-10-16T03:01:46;14.20;99.90
9971;DHT22;5026;51.494;11.974;2022-10-16T03:04:13;14.20;99.90
9971;DHT22;5026;51.494;11.974;2022-10-16T03:06:41;14.10;99.90
9971;DHT22;5026;51.494;11.974;2022-10-16T03:11:35;14.10;99.90
9971;DHT22;5026;51.494;11.974;2022-10-16T03:14:02;14.10;99.90
9971;DHT22;5026;51.494;11.974;2022-10-16T03:16:29;14.10;99.90
9971;DHT22;5026;51.494;11.974;2022-10-16T03:18:56;14.00;99.90
9971;DHT22;5026;51.494;11.974;2022-10-16T03:23:51;14.10;99.90
9971;DHT22;5026;51.494;11.974;2022-10-16T03:26:18;14.10;99.90
9971;DHT22;5026;51.494;11.974;2022-10-16T03:28:45;14.10;99.90
9971;DHT22;5026;51.494;11.974;2022-10-16T03:31:11;14.10;99.90
9971;DHT22;5026;51.494;11.974;2022-10-16T03:36:06;14.00;99.90
9971;DHT22;5026;51.494;11.974;2022-10-16T03:41:01;13.90;99.90
9971;DHT22;5026;51.494;11.974;2022-10-16T03:43:29;13.80;99.90
9971;DHT22;5026;51.494;11.974;2022-10-16T03:45:56;13.90;99.90
9971;DHT22;5026;51.494;11.974;2022-10-16T03:50:49;13.80;99.90
9971;DHT22;5026;51.494;11.974;2022-10-16T03:55:44;13.80;99.90
9971;DHT22;5026;51.494;11.974;2022-10-16T03:58:12;13.80;99.90
9971;DHT22;5026;51.494;11.974;2022-10-16T04:00:40;13.80;99.90
9971;DHT22;5026;51.494;11.974;2022-10-16T04:03:08;13.80;99.90
9971;DHT22;5026;51.494;11.974;2022-10-16T04:08:02;13.80;99.90
9971;DHT22;5026;51.494;11.974;2022-10-16T04:12:56;13.90;99.90
9971;DHT22;5026;51.494;11.974;2022-10-16T04:15:25;13.90;99.90
9971;DHT22;5026;51.494;11.974;2022-10-16T04:17:53;14.00;99.90
9971;DHT22;5026;51.494;11.974;2022-10-16T04:22:47;14.20;99.90
9971;DHT22;5026;51.494;11.974;2022-10-16T04:25:14;14.20;99.90
9971;DHT22;5026;51.494;11.974;2022-10-16T04:30:09;14.10;99.90
9971;DHT22;5026;51.494;11.974;2022-10-16T04:32:37;14.20;99.90
9971;DHT22;5026;51.494;11.974;2022-10-16T04:35:05;15.70;99.90
9971;DHT22;5026;51.494;11.974;2022-10-16T04:37:32;14.30;99.90
9971;DHT22;5026;51.494;11.974;2022-10-16T04:39:59;14.50;99.90
9971;DHT22;5026;51.494;11.974;2022-10-16T04:42:25;14.50;99.90
9971;DHT22;5026;51.494;11.974;2022-10-16T04:44:52;14.50;99.90
9971;DHT22;5026;51.494;11.974;2022-10-16T04:49:47;14.40;99.90
9971;DHT22;5026;51.494;11.974;2022-10-16T04:52:14;14.30;99.90
9971;DHT22;5026;51.494;11.974;2022-10-16T04:57:10;14.20;99.90
9971;DHT22;5026;51.494;11.974;2022-10-16T04:59:37;14.10;99.90
9971;DHT22;5026;51.494;11.974;2022-10-16T05:02:04;14.10;99.90
9971;DHT22;5026;51.494;11.974;2022-10-16T05:04:31;14.00;99.90
9971;DHT22;5026;51.494;11.974;2022-10-16T05:06:59;14.00;99.90
9971;DHT22;5026;51.494;11.974;2022-10-16T05:09:26;14.00;99.90
9971;DHT22;5026;51.494;11.974;2022-10-16T05:11:53;14.00;99.90
9971;DHT22;5026;51.494;11.974;2022-10-16T05:14:19;14.00;99.90
9971;DHT22;5026;51.494;11.974;2022-10-16T05:19:14;14.10;99.90
9971;DHT22;5026;51.494;11.974;2022-10-16T05:21:41;14.20;99.90
9971;DHT22;5026;51.494;11.974;2022-10-16T05:24:09;14.20;99.90
9971;DHT22;5026;51.494;11.974;2022-10-16T05:29:03;14.20;99.90
9971;DHT22;5026;51.494;11.974;2022-10-16T05:31:30;14.20;99.90
9971;DHT22;5026;51.494;11.974;2022-10-16T05:33:58;14.20;99.90
9971;DHT22;5026;51.494;11.974;2022-10-16T05:38:53;14.30;99.90
9971;DHT22;5026;51.494;11.974;2022-10-16T05:41:21;14.30;99.90
9971;DHT22;5026;51.494;11.974;2022-10-16T05:43:50;14.30;99.90
9971;DHT22;5026;51.494;11.974;2022-10-16T05:48:45;14.30;99.90
9971;DHT22;5026;51.494;11.974;2022-10-16T05:51:13;14.30;99.90
9971;DHT22;5026;51.494;11.974;2022-10-16T05:53:41;14.40;99.90
9971;DHT22;5026;51.494;11.974;2022-10-16T05:56:10;14.30;99.90
9971;DHT22;5026;51.494;11.974;2022-10-16T05:58:39;13.30;99.90
9971;DHT22;5026;51.494;11.974;2022-10-16T06:01:10;14.40;99.90
9971;DHT22;5026;51.494;11.974;2022-10-16T06:03:37;14.40;99.90
9971;DHT22;5026;51.494;11.974;2022-10-16T06:06:11;14.50;99.90
9971;DHT22;5026;51.494;11.974;2022-10-16T06:11:08;14.50;99.90
9971;DHT22;5026;51.494;11.974;2022-10-16T06:13:35;14.60;99.90
9971;DHT22;5026;51.494;11.974;2022-10-16T06:16:04;14.60;99.90
9971;DHT22;5026;51.494;11.974;2022-10-16T06:23:28;14.70;99.90
9971;DHT22;5026;51.494;11.974;2022-10-16T06:26:04;14.80;99.90
9971;DHT22;5026;51.494;11.974;2022-10-16T06:28:31;14.70;99.90
9971;DHT22;5026;51.494;11.974;2022-10-16T06:30:59;14.80;99.90
9971;DHT22;5026;51.494;11.974;2022-10-16T06:33:27;14.80;99.90
9971;DHT22;5026;51.494;11.974;2022-10-16T06:35:54;14.70;99.90
9971;DHT22;5026;51.494;11.974;2022-10-16T06:40:53;14.80;99.90
9971;DHT22;5026;51.494;11.974;2022-10-16T06:45:51;14.90;99.90
9971;DHT22;5026;51.494;11.974;2022-10-16T06:48:17;15.00;99.90
9971;DHT22;5026;51.494;11.974;2022-10-16T06:50:55;15.10;99.90
9971;DHT22;5026;51.494;11.974;2022-10-16T06:53:22;15.20;99.90
9971;DHT22;5026;51.494;11.974;2022-10-16T06:55:48;15.20;99.90
9971;DHT22;5026;51.494;11.974;2022-10-16T06:58:15;15.30;99.90
9971;DHT22;5026;51.494;11.974;2022-10-16T07:05:37;15.70;99.90
9971;DHT22;5026;51.494;11.974;2022-10-16T07:08:06;15.80;99.90
9971;DHT22;5026;51.494;11.974;2022-10-16T07:10:33;12.90;99.90
9971;DHT22;5026;51.494;11.974;2022-10-16T07:13:00;16.10;99.90
9971;DHT22;5026;51.494;11.974;2022-10-16T07:15:27;16.20;99.90
9971;DHT22;5026;51.494;11.974;2022-10-16T07:17:54;16.40;99.90
9971;DHT22;5026;51.494;11.974;2022-10-16T07:22:48;16.70;99.90
9971;DHT22;5026;51.494;11.974;2022-10-16T07:25:16;16.70;99.90
9971;DHT22;5026;51.494;11.974;2022-10-16T07:27:43;16.70;99.90
9971;DHT22;5026;51.494;11.974;2022-10-16T07:32:37;16.70;99.90
9971;DHT22;5026;51.494;11.974;2022-10-16T07:35:05;16.70;99.90
9971;DHT22;5026;51.494;11.974;2022-10-16T07:42:28;17.00;99.90
9971;DHT22;5026;51.494;11.974;2022-10-16T07:44:55;17.10;99.90
9971;DHT22;5026;51.494;11.974;2022-10-16T07:47:22;17.30;99.90
9971;DHT22;5026;51.494;11.974;2022-10-16T07:52:16;17.90;99.90
9971;DHT22;5026;51.494;11.974;2022-10-16T07:59:38;18.80;99.90
9971;DHT22;5026;51.494;11.974;2022-10-16T08:02:05;19.00;99.90
9971;DHT22;5026;51.494;11.974;2022-10-16T08:11:54;18.50;99.90
9971;DHT22;5026;51.494;11.974;2022-10-16T08:16:49;18.40;99.90
9971;DHT22;5026;51.494;11.974;2022-10-16T08:21:47;19.90;99.90
9971;DHT22;5026;51.494;11.974;2022-10-16T08:24:14;21.80;99.90
9971;DHT22;5026;51.494;11.974;2022-10-16T08:26:41;22.00;99.80
9971;DHT22;5026;51.494;11.974;2022-10-16T08:29:07;21.70;99.40
9971;DHT22;5026;51.494;11.974;2022-10-16T08:34:03;21.00;99.40
9971;DHT22;5026;51.494;11.974;2022-10-16T08:36:30;20.70;99.60
9971;DHT22;5026;51.494;11.974;2022-10-16T08:38:57;20.50;99.80
9971;DHT22;5026;51.494;11.974;2022-10-16T08:41:39;20.40;99.90
9971;DHT22;5026;51.494;11.974;2022-10-16T08:44:35;20.30;99.90
9971;DHT22;5026;51.494;11.974;2022-10-16T08:47:13;20.20;99.90
9971;DHT22;5026;51.494;11.974;2022-10-16T08:49:43;20.20;99.90
9971;DHT22;5026;51.494;11.974;2022-10-16T08:52:16;20.10;99.90
9971;DHT22;5026;51.494;11.974;2022-10-16T08:54:46;20.00;99.90
9971;DHT22;5026;51.494;11.974;2022-10-16T08:57:17;20.00;99.90
9971;DHT22;5026;51.494;11.974;2022-10-16T09:02:23;20.00;99.90
9971;DHT22;5026;51.494;11.974;2022-10-16T09:05:09;20.10;99.90
9971;DHT22;5026;51.494;11.974;2022-10-16T09:07:45;20.10;99.90
9971;DHT22;5026;51.494;11.974;2022-10-16T09:10:24;20.20;99.70
9971;DHT22;5026;51.494;11.974;2022-10-16T09:12:57;20.20;99.50
9971;DHT22;5026;51.494;11.974;2022-10-16T09:15:30;20.30;99.60
9971;DHT22;5026;51.494;11.974;2022-10-16T09:18:05;20.40;99.40
9971;DHT22;5026;51.494;11.974;2022-10-16T09:20:53;20.60;99.20
9971;DHT22;5026;51.494;11.974;2022-10-16T09:23:25;20.70;99.00
9971;DHT22;5026;51.494;11.974;2022-10-16T09:25:53;20.90;98.90
9971;DHT22;5026;51.494;11.974;2022-10-16T09:33:17;21.10;98.60
9971;DHT22;5026;51.494;11.974;2022-10-16T09:35:48;21.10;98.50
9971;DHT22;5026;51.494;11.974;2022-10-16T09:38:23;21.00;98.40
9971;DHT22;5026;51.494;11.974;2022-10-16T09:43:22;20.80;98.40
9971;DHT22;5026;51.494;11.974;2022-10-16T09:45:58;20.70;98.50
9971;DHT22;5026;51.494;11.974;2022-10-16T09:48:28;20.60;98.50
9971;DHT22;5026;51.494;11.974;2022-10-16T09:51:00;20.70;98.70
9971;DHT22;5026;51.494;11.974;2022-10-16T09:53:40;20.80;98.50
9971;DHT22;5026;51.494;11.974;2022-10-16T09:56:07;20.90;98.50
9971;DHT22;5026;51.494;11.974;2022-10-16T10:03:36;20.90;98.20
9971;DHT22;5026;51.494;11.974;2022-10-16T10:06:15;20.70;98.30
9971;DHT22;5026;51.494;11.974;2022-10-16T10:09:04;20.70;98.20
9971;DHT22;5026;51.494;11.974;2022-10-16T10:11:47;20.60;98.30
9971;DHT22;5026;51.494;11.974;2022-10-16T10:14:20;20.50;98.40
9971;DHT22;5026;51.494;11.974;2022-10-16T10:16:47;20.50;98.50
9971;DHT22;5026;51.494;11.974;2022-10-16T10:19:16;20.40;98.50
9971;DHT22;5026;51.494;11.974;2022-10-16T10:21:45;20.30;98.50
9971;DHT22;5026;51.494;11.974;2022-10-16T10:24:13;20.50;98.50
9971;DHT22;5026;51.494;11.974;2022-10-16T10:26:48;20.70;98.50
9971;DHT22;5026;51.494;11.974;2022-10-16T10:29:21;20.80;98.20
9971;DHT22;5026;51.494;11.974;2022-10-16T10:31:57;20.90;98.10
9971;DHT22;5026;51.494;11.974;2022-10-16T10:34:46;21.00;98.10
9971;DHT22;5026;51.494;11.974;2022-10-16T10:37:27;21.10;98.10
9971;DHT22;5026;51.494;11.974;2022-10-16T10:40:02;21.00;98.00
9971;DHT22;5026;51.494;11.974;2022-10-16T10:42:36;20.90;98.10
9971;DHT22;5026;51.494;11.974;2022-10-16T10:45:21;20.80;98.10
9971;DHT22;5026;51.494;11.974;2022-10-16T10:47:59;20.50;98.10
9971;DHT22;5026;51.494;11.974;2022-10-16T10:50:38;20.60;98.20
9971;DHT22;5026;51.494;11.974;2022-10-16T10:53:18;20.70;98.30
9971;DHT22;5026;51.494;11.974;2022-10-16T10:55:53;20.70;98.30
9971;DHT22;5026;51.494;11.974;2022-10-16T10:58:44;20.70;98.20
9971;DHT22;5026;51.494;11.974;2022-10-16T11:01:16;20.70;98.30
9971;DHT22;5026;51.494;11.974;2022-10-16T11:04:01;20.60;98.30
9971;DHT22;5026;51.494;11.974;2022-10-16T11:06:32;20.40;98.40
9971;DHT22;5026;51.494;11.974;2022-10-16T11:09:09;20.30;98.50
9971;DHT22;5026;51.494;11.974;2022-10-16T11:11:41;20.40;98.60
9971;DHT22;5026;51.494;11.974;2022-10-16T11:14:15;20.50;98.60
9971;DHT22;5026;51.494;11.974;2022-10-16T11:16:49;20.60;98.50
9971;DHT22;5026;51.494;11.974;2022-10-16T11:19:26;20.70;98.50
9971;DHT22;5026;51.494;11.974;2022-10-16T11:22:01;20.70;98.40
9971;DHT22;5026;51.494;11.974;2022-10-16T11:24:36;20.70;98.40
9971;DHT22;5026;51.494;11.974;2022-10-16T11:27:09;20.70;98.50
9971;DHT22;5026;51.494;11.974;2022-10-16T11:29:45;20.70;98.50
9971;DHT22;5026;51.494;11.974;2022-10-16T11:32:21;20.60;98.50
9971;DHT22;5026;51.494;11.974;2022-10-16T11:34:53;20.50;98.60
9971;DHT22;5026;51.494;11.974;2022-10-16T11:37:26;20.50;98.60
9971;DHT22;5026;51.494;11.974;2022-10-16T11:40:03;20.50;98.70
9971;DHT22;5026;51.494;11.974;2022-10-16T11:42:35;20.40;98.70
9971;DHT22;5026;51.494;11.974;2022-10-16T11:45:10;20.40;98.70
9971;DHT22;5026;51.494;11.974;2022-10-16T11:47:44;20.40;98.70
9971;DHT22;5026;51.494;11.974;2022-10-16T11:50:20;20.30;98.70
9971;DHT22;5026;51.494;11.974;2022-10-16T11:52:52;20.30;98.80
9971;DHT22;5026;51.494;11.974;2022-10-16T11:55:24;20.30;98.80
9971;DHT22;5026;51.494;11.974;2022-10-16T11:57:59;20.30;98.80
9971;DHT22;5026;51.494;11.974;2022-10-16T12:00:30;20.50;98.80
9971;DHT22;5026;51.494;11.974;2022-10-16T12:03:03;20.80;98.70
9971;DHT22;5026;51.494;11.974;2022-10-16T12:05:49;21.20;98.60
9971;DHT22;5026;51.494;11.974;2022-10-16T12:08:18;21.30;98.30
9971;DHT22;5026;51.494;11.974;2022-10-16T12:10:47;21.40;98.10
9971;DHT22;5026;51.494;11.974;2022-10-16T12:13:31;21.50;98.00
9971;DHT22;5026;51.494;11.974;2022-10-16T12:16:06;21.50;98.00
9971;DHT22;5026;51.494;11.974;2022-10-16T12:18:33;21.30;97.70
9971;DHT22;5026;51.494;11.974;2022-10-16T12:23:32;21.10;97.90
9971;DHT22;5026;51.494;11.974;2022-10-16T12:26:01;21.20;97.90
9971;DHT22;5026;51.494;11.974;2022-10-16T12:28:29;21.30;97.90
9971;DHT22;5026;51.494;11.974;2022-10-16T12:30:58;21.30;97.70
9971;DHT22;5026;51.494;11.974;2022-10-16T12:33:27;21.20;97.80
9971;DHT22;5026;51.494;11.974;2022-10-16T12:35:55;21.10;97.80
9971;DHT22;5026;51.494;11.974;2022-10-16T12:38:26;21.10;97.90
9971;DHT22;5026;51.494;11.974;2022-10-16T12:41:01;21.10;98.00
9971;DHT22;5026;51.494;11.974;2022-10-16T12:43:37;21.10;98.00
9971;DHT22;5026;51.494;11.974;2022-10-16T12:46:20;21.00;98.00
9971;DHT22;5026;51.494;11.974;2022-10-16T12:48:48;20.90;97.60
9971;DHT22;5026;51.494;11.974;2022-10-16T12:51:24;20.80;97.50
9971;DHT22;5026;51.494;11.974;2022-10-16T12:53:59;20.80;97.50
9971;DHT22;5026;51.494;11.974;2022-10-16T12:56:36;20.80;97.50
9971;DHT22;5026;51.494;11.974;2022-10-16T12:59:15;20.70;97.20
9971;DHT22;5026;51.494;11.974;2022-10-16T13:01:56;20.50;97.30
9971;DHT22;5026;51.494;11.974;2022-10-16T13:07:34;20.30;97.30
9971;DHT22;5026;51.494;11.974;2022-10-16T13:10:11;20.30;97.30
9971;DHT22;5026;51.494;11.974;2022-10-16T13:12:55;20.30;97.20
9971;DHT22;5026;51.494;11.974;2022-10-16T13:15:29;20.10;97.30
9971;DHT22;5026;51.494;11.974;2022-10-16T13:18:07;20.00;97.40
9971;DHT22;5026;51.494;11.974;2022-10-16T13:20:52;19.90;97.50
9971;DHT22;5026;51.494;11.974;2022-10-16T13:23:27;19.90;97.70
9971;DHT22;5026;51.494;11.974;2022-10-16T13:26:05;19.80;97.70
9971;DHT22;5026;51.494;11.974;2022-10-16T13:28:37;19.70;97.70
9971;DHT22;5026;51.494;11.974;2022-10-16T13:31:09;19.60;97.70
9971;DHT22;5026;51.494;11.974;2022-10-16T13:33:39;19.50;97.70
9971;DHT22;5026;51.494;11.974;2022-10-16T13:36:19;19.40;97.90
9971;DHT22;5026;51.494;11.974;2022-10-16T13:41:15;19.30;98.00
9971;DHT22;5026;51.494;11.974;2022-10-16T13:43:44;19.30;98.10
9971;DHT22;5026;51.494;11.974;2022-10-16T13:46:13;19.30;98.10
9971;DHT22;5026;51.494;11.974;2022-10-16T13:51:12;19.40;98.00
9971;DHT22;5026;51.494;11.974;2022-10-16T13:53:40;19.40;98.10
9971;DHT22;5026;51.494;11.974;2022-10-16T13:56:10;19.40;98.20
9971;DHT22;5026;51.494;11.974;2022-10-16T13:58:37;19.40;98.20
9971;DHT22;5026;51.494;11.974;2022-10-16T14:01:15;19.50;98.20
9971;DHT22;5026;51.494;11.974;2022-10-16T14:06:13;19.60;98.10
9971;DHT22;5026;51.494;11.974;2022-10-16T14:08:43;19.70;98.10
9971;DHT22;5026;51.494;11.974;2022-10-16T14:13:40;19.70;98.10
9971;DHT22;5026;51.494;11.974;2022-10-16T14:16:16;19.70;98.10
9971;DHT22;5026;51.494;11.974;2022-10-16T14:18:46;19.70;98.10
9971;DHT22;5026;51.494;11.974;2022-10-16T14:21:16;19.70;98.10
9971;DHT22;5026;51.494;11.974;2022-10-16T14:26:15;19.70;98.10
9971;DHT22;5026;51.494;11.974;2022-10-16T14:28:43;19.60;98.10
9971;DHT22;5026;51.494;11.974;2022-10-16T14:31:27;19.70;98.20
9971;DHT22;5026;51.494;11.974;2022-10-16T14:33:54;19.70;98.20
9971;DHT22;5026;51.494;11.974;2022-10-16T14:36:21;19.80;98.20
9971;DHT22;5026;51.494;11.974;2022-10-16T14:38:51;19.70;98.20
9971;DHT22;5026;51.494;11.974;2022-10-16T14:43:51;19.50;98.30
9971;DHT22;5026;51.494;11.974;2022-10-16T14:46:20;19.60;98.30
9971;DHT22;5026;51.494;11.974;2022-10-16T14:48:57;19.50;98.30
9971;DHT22;5026;51.494;11.974;2022-10-16T14:51:26;19.60;98.20
9971;DHT22;5026;51.494;11.974;2022-10-16T14:56:21;19.40;98.20
9971;DHT22;5026;51.494;11.974;2022-10-16T14:58:51;19.50;98.20
9971;DHT22;5026;51.494;11.974;2022-10-16T15:01:19;19.50;98.20
9971;DHT22;5026;51.494;11.974;2022-10-16T15:03:46;19.50;98.10
9971;DHT22;5026;51.494;11.974;2022-10-16T15:06:15;19.40;98.00
9971;DHT22;5026;51.494;11.974;2022-10-16T15:08:42;19.50;98.00
9971;DHT22;5026;51.494;11.974;2022-10-16T15:11:11;19.50;98.00
9971;DHT22;5026;51.494;11.974;2022-10-16T15:16:09;19.40;98.00
9971;DHT22;5026;51.494;11.974;2022-10-16T15:21:04;20.80;98.60
9971;DHT22;5026;51.494;11.974;2022-10-16T15:23:33;19.30;98.20
9971;DHT22;5026;51.494;11.974;2022-10-16T15:25:59;19.20;98.30
9971;DHT22;5026;51.494;11.974;2022-10-16T15:28:26;19.10;98.30
9971;DHT22;5026;51.494;11.974;2022-10-16T15:30:54;19.00;98.40
9971;DHT22;5026;51.494;11.974;2022-10-16T15:33:22;19.10;98.50
9971;DHT22;5026;51.494;11.974;2022-10-16T15:35:51;19.10;98.50
9971;DHT22;5026;51.494;11.974;2022-10-16T15:38:19;19.00;98.60
9971;DHT22;5026;51.494;11.974;2022-10-16T15:40:48;19.00;98.70
9971;DHT22;5026;51.494;11.974;2022-10-16T15:43:15;18.90;98.80
9971;DHT22;5026;51.494;11.974;2022-10-16T15:48:10;18.80;98.80
9971;DHT22;5026;51.494;11.974;2022-10-16T15:50:38;18.90;98.90
9971;DHT22;5026;51.494;11.974;2022-10-16T15:53:05;18.80;98.90
9971;DHT22;5026;51.494;11.974;2022-10-16T15:55:33;18.80;98.90
9971;DHT22;5026;51.494;11.974;2022-10-16T15:58:03;18.80;99.00
9971;DHT22;5026;51.494;11.974;2022-10-16T16:00:30;18.80;98.90
9971;DHT22;5026;51.494;11.974;2022-10-16T16:05:24;18.70;98.90
9971;DHT22;5026;51.494;11.974;2022-10-16T16:07:51;18.70;99.00
9971;DHT22;5026;51.494;11.974;2022-10-16T16:10:18;18.50;99.00
9971;DHT22;5026;51.494;11.974;2022-10-16T16:12:46;18.50;99.20
9971;DHT22;5026;51.494;11.974;2022-10-16T16:15:20;18.50;99.20
9971;DHT22;5026;51.494;11.974;2022-10-16T16:17:47;18.30;99.30
9971;DHT22;5026;51.494;11.974;2022-10-16T16:27:35;18.40;99.10
9971;DHT22;5026;51.494;11.974;2022-10-16T16:30:05;18.40;99.20
9971;DHT22;5026;51.494;11.974;2022-10-16T16:32:34;18.20;99.20
9971;DHT22;5026;51.494;11.974;2022-10-16T16:39:56;18.00;99.50
9971;DHT22;5026;51.494;11.974;2022-10-16T16:44:51;18.00;99.60
9971;DHT22;5026;51.494;11.974;2022-10-16T16:47:18;18.00;99.50
9971;DHT22;5026;51.494;11.974;2022-10-16T16:49:47;18.00;99.50
9971;DHT22;5026;51.494;11.974;2022-10-16T16:52:15;18.00;99.50
9971;DHT22;5026;51.494;11.974;2022-10-16T16:54:42;17.90;99.40
9971;DHT22;5026;51.494;11.974;2022-10-16T17:04:31;17.70;99.80
9971;DHT22;5026;51.494;11.974;2022-10-16T17:06:59;17.60;99.90
9971;DHT22;5026;51.494;11.974;2022-10-16T17:09:26;17.60;99.90
9971;DHT22;5026;51.494;11.974;2022-10-16T17:11:53;17.60;99.90
9971;DHT22;5026;51.494;11.974;2022-10-16T17:14:20;17.60;99.90
9971;DHT22;5026;51.494;11.974;2022-10-16T17:16:46;17.50;99.90
9971;DHT22;5026;51.494;11.974;2022-10-16T17:19:15;17.40;99.90
9971;DHT22;5026;51.494;11.974;2022-10-16T17:21:44;17.30;99.90
9971;DHT22;5026;51.494;11.974;2022-10-16T17:24:12;17.30;99.90
9971;DHT22;5026;51.494;11.974;2022-10-16T17:29:11;15.50;99.80
9971;DHT22;5026;51.494;11.974;2022-10-16T17:34:10;17.20;99.90
9971;DHT22;5026;51.494;11.974;2022-10-16T17:36:38;17.10;99.90
9971;DHT22;5026;51.494;11.974;2022-10-16T17:39:10;17.10;99.90
9971;DHT22;5026;51.494;11.974;2022-10-16T17:41:39;17.00;99.90
9971;DHT22;5026;51.494;11.974;2022-10-16T17:44:06;17.00;99.90
9971;DHT22;5026;51.494;11.974;2022-10-16T17:46:34;17.00;99.90
9971;DHT22;5026;51.494;11.974;2022-10-16T17:51:30;16.90;99.90
9971;DHT22;5026;51.494;11.974;2022-10-16T17:53:59;16.70;99.90
9971;DHT22;5026;51.494;11.974;2022-10-16T17:56:26;16.70;99.90
9971;DHT22;5026;51.494;11.974;2022-10-16T17:58:56;16.60;99.90
9971;DHT22;5026;51.494;11.974;2022-10-16T18:01:26;16.50;99.90
9971;DHT22;5026;51.494;11.974;2022-10-16T18:03:55;16.40;99.90
9971;DHT22;5026;51.494;11.974;2022-10-16T18:06:23;16.30;99.90
9971;DHT22;5026;51.494;11.974;2022-10-16T18:11:18;16.30;99.90
9971;DHT22;5026;51.494;11.974;2022-10-16T18:13:44;16.30;99.90
9971;DHT22;5026;51.494;11.974;2022-10-16T18:16:14;16.30;99.90
9971;DHT22;5026;51.494;11.974;2022-10-16T18:18:42;16.30;99.90
9971;DHT22;5026;51.494;11.974;2022-10-16T18:21:11;16.30;99.90
9971;DHT22;5026;51.494;11.974;2022-10-16T18:23:39;16.30;99.90
9971;DHT22;5026;51.494;11.974;2022-10-16T18:26:07;16.30;99.90
9971;DHT22;5026;51.494;11.974;2022-10-16T18:31:02;16.30;99.90
9971;DHT22;5026;51.494;11.974;2022-10-16T18:33:32;16.50;99.90
9971;DHT22;5026;51.494;11.974;2022-10-16T18:36:00;16.40;99.90
9971;DHT22;5026;51.494;11.974;2022-10-16T18:38:28;16.50;99.90
9971;DHT22;5026;51.494;11.974;2022-10-16T18:40:55;16.70;99.90
9971;DHT22;5026;51.494;11.974;2022-10-16T18:45:55;16.60;99.90
9971;DHT22;5026;51.494;11.974;2022-10-16T18:50:51;16.40;99.90
9971;DHT22;5026;51.494;11.974;2022-10-16T18:53:18;16.50;99.90
9971;DHT22;5026;51.494;11.974;2022-10-16T18:55:50;16.90;99.90
9971;DHT22;5026;51.494;11.974;2022-10-16T18:58:17;16.40;99.90
9971;DHT22;5026;51.494;11.974;2022-10-16T19:00:44;16.30;99.90
9971;DHT22;5026;51.494;11.974;2022-10-16T19:08:07;16.20;99.90
9971;DHT22;5026;51.494;11.974;2022-10-16T19:10:35;16.20;99.90
9971;DHT22;5026;51.494;11.974;2022-10-16T19:13:02;16.20;99.90
9971;DHT22;5026;51.494;11.974;2022-10-16T19:15:29;16.30;99.90
9971;DHT22;5026;51.494;11.974;2022-10-16T19:17:56;16.30;99.90